createdAt,value
2017-08-03T00:00:08.071Z,78.60
2017-08-03T00:02:35.755Z,78.60
2017-08-03T00:05:03.422Z,78.50
2017-08-03T00:07:31.116Z,78.50
2017-08-03T00:09:58.767Z,78.80
2017-08-03T00:12:26.456Z,79.60
2017-08-03T00:14:54.103Z,79.80
2017-08-03T00:17:21.804Z,79.90
2017-08-03T00:19:49.455Z,79.80
2017-08-03T00:22:17.908Z,79.30
2017-08-03T00:24:45.547Z,79.30
2017-08-03T00:27:13.194Z,79.00
2017-08-03T00:29:40.887Z,79.30
2017-08-03T00:32:08.536Z,79.80
2017-08-03T00:34:36.231Z,80.30
2017-08-03T00:37:03.884Z,80.40
2017-08-03T00:39:32.343Z,80.20
2017-08-03T00:41:59.996Z,80.10
2017-08-03T00:44:27.680Z,80.30
2017-08-03T00:46:55.327Z,81.10
2017-08-03T00:49:23.024Z,81.20
2017-08-03T00:51:50.702Z,81.20
2017-08-03T00:54:18.394Z,81.90
2017-08-03T00:56:46.035Z,81.50
2017-08-03T00:59:13.723Z,81.90
2017-08-03T01:01:41.371Z,81.70
2017-08-03T01:04:09.066Z,81.10
2017-08-03T01:06:36.725Z,81.00
2017-08-03T01:09:05.218Z,81.20
2017-08-03T01:11:32.862Z,81.00
2017-08-03T01:14:00.563Z,81.30
2017-08-03T01:16:28.236Z,81.10
2017-08-03T01:18:55.926Z,81.00
2017-08-03T01:21:23.578Z,81.40
2017-08-03T01:23:51.257Z,82.00
2017-08-03T01:26:19.667Z,83.60
2017-08-03T01:28:47.363Z,83.00
2017-08-03T01:31:15.047Z,83.10
2017-08-03T01:33:42.710Z,83.10
2017-08-03T01:36:11.167Z,82.10
2017-08-03T01:38:38.820Z,81.70
2017-08-03T01:41:06.528Z,81.50
2017-08-03T01:43:34.198Z,81.20
2017-08-03T01:46:01.906Z,81.10
2017-08-03T01:48:29.615Z,80.60
2017-08-03T01:50:57.326Z,80.80
2017-08-03T01:53:25.014Z,80.80
2017-08-03T01:55:53.500Z,81.00
2017-08-03T01:58:21.172Z,81.00
2017-08-03T02:00:48.899Z,81.30
2017-08-03T02:03:16.587Z,80.90
2017-08-03T02:05:45.107Z,80.90
2017-08-03T02:08:12.799Z,80.80
2017-08-03T02:10:40.526Z,80.60
2017-08-03T02:13:08.183Z,80.50
2017-08-03T02:15:35.870Z,80.60
2017-08-03T02:18:03.536Z,80.60
2017-08-03T02:20:31.219Z,80.70
2017-08-03T02:22:58.862Z,80.50
2017-08-03T02:25:26.551Z,80.10
2017-08-03T02:27:54.192Z,80.60
2017-08-03T02:30:21.887Z,80.60
2017-08-03T02:32:49.530Z,80.50
2017-08-03T02:35:17.183Z,81.20
2017-08-03T02:37:44.878Z,81.00
2017-08-03T02:40:12.525Z,80.50
2017-08-03T02:42:40.219Z,80.40
2017-08-03T02:45:07.862Z,80.70
2017-08-03T02:47:35.560Z,81.50
2017-08-03T02:50:03.211Z,82.00
2017-08-03T02:52:30.907Z,81.80
2017-08-03T02:54:58.564Z,81.70
2017-08-03T02:57:26.258Z,81.70
2017-08-03T02:59:53.902Z,81.50
2017-08-03T03:02:21.599Z,81.20
2017-08-03T03:04:49.249Z,81.00
2017-08-03T03:07:16.935Z,80.80
2017-08-03T03:09:44.582Z,80.70
2017-08-03T03:12:12.280Z,81.40
2017-08-03T03:14:39.923Z,81.80
2017-08-03T03:17:08.387Z,82.00
2017-08-03T03:19:36.038Z,81.90
2017-08-03T03:22:03.764Z,82.40
2017-08-03T03:24:31.415Z,82.60
2017-08-03T03:26:59.112Z,83.10
2017-08-03T03:29:26.779Z,83.10
2017-08-03T03:31:54.467Z,82.90
2017-08-03T03:34:22.879Z,82.00
2017-08-03T03:36:50.590Z,82.00
2017-08-03T03:39:18.239Z,81.90
2017-08-03T03:41:45.896Z,82.50
2017-08-03T03:44:13.579Z,81.90
2017-08-03T03:46:41.240Z,81.30
2017-08-03T03:49:09.694Z,81.30
2017-08-03T03:51:37.363Z,81.30
2017-08-03T03:54:05.055Z,81.70
2017-08-03T03:56:32.700Z,81.50
2017-08-03T03:59:00.392Z,81.80
2017-08-03T04:01:28.034Z,81.60
2017-08-03T04:03:55.723Z,82.10
2017-08-03T04:06:23.371Z,82.40
2017-08-03T04:08:51.067Z,82.60
2017-08-03T04:11:18.723Z,82.70
2017-08-03T04:13:46.406Z,83.00
2017-08-03T04:16:14.827Z,83.10
2017-08-03T04:18:42.517Z,83.00
2017-08-03T04:21:10.155Z,83.00
2017-08-03T04:23:37.843Z,82.90
2017-08-03T04:26:05.561Z,82.40
2017-08-03T04:28:33.248Z,83.50
2017-08-03T04:31:00.894Z,82.80
2017-08-03T04:33:28.578Z,83.30
2017-08-03T04:35:56.218Z,82.60
2017-08-03T04:38:23.907Z,82.40
2017-08-03T04:40:51.554Z,82.00
2017-08-03T04:43:20.143Z,82.70
2017-08-03T04:45:47.790Z,81.90
2017-08-03T04:48:15.475Z,82.20
2017-08-03T04:50:43.123Z,82.80
2017-08-03T04:53:10.764Z,84.20
2017-08-03T04:55:38.471Z,84.90
2017-08-03T04:58:06.118Z,84.50
2017-08-03T05:00:34.598Z,85.50
2017-08-03T05:03:03.020Z,84.90
2017-08-03T05:05:30.711Z,84.90
2017-08-03T05:07:58.362Z,84.90
2017-08-03T05:10:26.054Z,86.00
2017-08-03T05:12:54.466Z,86.90
2017-08-03T05:15:22.158Z,87.50
2017-08-03T05:17:49.807Z,86.80
2017-08-03T05:20:17.495Z,87.20
2017-08-03T05:22:45.157Z,88.20
2017-08-03T05:25:12.851Z,88.80
2017-08-03T05:27:40.502Z,89.50
2017-08-03T05:30:08.213Z,88.80
2017-08-03T05:32:35.859Z,87.70
2017-08-03T05:35:03.571Z,88.40
2017-08-03T05:37:31.992Z,89.30
2017-08-03T05:39:59.692Z,89.30
2017-08-03T05:42:27.863Z,89.10
2017-08-03T05:44:55.569Z,90.00
2017-08-03T05:47:23.227Z,89.60
2017-08-03T05:49:50.879Z,89.30
2017-08-03T05:52:18.575Z,89.70
2017-08-03T05:54:46.222Z,89.20
2017-08-03T05:57:13.915Z,88.40
2017-08-03T05:59:41.573Z,88.50
2017-08-03T06:02:09.271Z,88.30
2017-08-03T06:04:36.924Z,89.30
2017-08-03T06:07:04.628Z,89.50
2017-08-03T06:09:32.281Z,89.10
2017-08-03T06:11:59.979Z,88.70
2017-08-03T06:14:27.638Z,89.70
2017-08-03T06:16:55.335Z,89.80
2017-08-03T06:19:22.982Z,90.00
2017-08-03T06:21:50.674Z,89.80
2017-08-03T06:24:18.332Z,89.70
2017-08-03T06:26:46.031Z,89.30
2017-08-03T06:29:13.683Z,89.20
2017-08-03T06:31:41.383Z,89.30
2017-08-03T06:34:09.045Z,90.00
2017-08-03T06:36:36.759Z,89.60
2017-08-03T06:39:04.527Z,89.20
2017-08-03T06:41:32.215Z,89.20
2017-08-03T06:44:00.639Z,89.20
2017-08-03T06:46:28.330Z,89.20
2017-08-03T06:48:55.986Z,88.40
2017-08-03T06:51:23.695Z,88.60
2017-08-03T06:53:51.346Z,88.20
2017-08-03T06:56:19.012Z,88.50
2017-08-03T06:58:46.706Z,88.40
2017-08-03T07:01:14.363Z,87.90
2017-08-03T07:03:42.055Z,87.50
2017-08-03T07:06:09.716Z,88.10
2017-08-03T07:08:37.428Z,87.20
2017-08-03T07:11:05.087Z,88.70
2017-08-03T07:13:32.786Z,88.60
2017-08-03T07:16:00.442Z,88.20
2017-08-03T07:18:28.172Z,88.30
2017-08-03T07:20:55.823Z,88.00
2017-08-03T07:23:23.516Z,87.50
2017-08-03T07:25:51.188Z,88.20
2017-08-03T07:28:18.878Z,88.10
2017-08-03T07:30:47.303Z,88.20
2017-08-03T07:33:15.007Z,87.40
2017-08-03T07:35:42.682Z,87.40
2017-08-03T07:38:10.374Z,87.30
2017-08-03T07:40:38.034Z,87.50
2017-08-03T07:43:05.732Z,88.30
2017-08-03T07:45:33.387Z,88.90
2017-08-03T07:48:01.078Z,88.10
2017-08-03T07:50:29.499Z,88.80
2017-08-03T07:52:57.193Z,88.80
2017-08-03T07:55:24.884Z,88.80
2017-08-03T07:57:52.584Z,88.80
2017-08-03T08:00:20.235Z,87.80
2017-08-03T08:02:47.942Z,87.60
2017-08-03T08:05:15.604Z,87.50
2017-08-03T08:07:44.023Z,88.40
2017-08-03T08:10:11.726Z,88.40
2017-08-03T08:12:39.388Z,88.10
2017-08-03T08:15:07.078Z,88.10
2017-08-03T08:17:34.730Z,87.90
2017-08-03T08:20:03.205Z,88.90
2017-08-03T08:22:31.623Z,89.00
2017-08-03T08:24:59.319Z,88.90
2017-08-03T08:27:26.976Z,89.00
2017-08-03T08:29:54.666Z,90.00
2017-08-03T08:32:23.078Z,90.00
2017-08-03T08:34:50.772Z,90.00
2017-08-03T08:37:18.427Z,90.00
2017-08-03T08:39:46.133Z,90.40
2017-08-03T08:42:13.785Z,90.10
2017-08-03T08:44:41.475Z,90.20
2017-08-03T08:47:09.132Z,90.10
2017-08-03T08:49:36.835Z,90.20
2017-08-03T08:52:04.491Z,90.80
2017-08-03T08:54:32.196Z,90.60
2017-08-03T08:56:59.846Z,90.50
2017-08-03T08:59:27.548Z,90.20
2017-08-03T09:01:55.200Z,90.10
2017-08-03T09:04:22.911Z,90.40
2017-08-03T09:06:50.564Z,90.40
2017-08-03T09:09:18.215Z,89.70
2017-08-03T09:11:45.903Z,90.00
2017-08-03T09:14:13.558Z,89.50
2017-08-03T09:16:41.255Z,89.60
2017-08-03T09:19:08.898Z,90.10
2017-08-03T09:21:36.591Z,90.00
2017-08-03T09:24:04.251Z,89.60
2017-08-03T09:26:31.943Z,90.40
2017-08-03T09:28:59.630Z,90.00
2017-08-03T09:31:27.325Z,89.50
2017-08-03T09:33:54.975Z,89.20
2017-08-03T09:36:22.663Z,88.90
2017-08-03T09:38:50.319Z,88.80
2017-08-03T09:41:18.015Z,89.10
2017-08-03T09:43:46.435Z,89.70
2017-08-03T09:46:14.135Z,89.60
2017-08-03T09:48:41.801Z,89.30
2017-08-03T09:51:10.264Z,88.40
2017-08-03T09:53:37.921Z,88.40
2017-08-03T09:56:05.610Z,88.90
2017-08-03T09:58:33.259Z,87.40
2017-08-03T10:01:01.731Z,86.50
2017-08-03T10:03:29.399Z,86.40
2017-08-03T10:05:57.111Z,87.90
2017-08-03T10:08:24.777Z,88.30
2017-08-03T10:10:52.454Z,88.00
2017-08-03T10:13:20.158Z,87.80
2017-08-03T10:15:47.811Z,87.60
2017-08-03T10:18:15.524Z,88.10
2017-08-03T10:20:43.178Z,88.70
2017-08-03T10:23:10.868Z,87.20
2017-08-03T10:25:38.519Z,86.70
2017-08-03T10:28:06.214Z,87.10
2017-08-03T10:30:33.866Z,86.70
2017-08-03T10:33:01.566Z,87.30
2017-08-03T10:35:29.228Z,87.00
2017-08-03T10:37:56.927Z,86.30
2017-08-03T10:40:24.578Z,86.40
2017-08-03T10:42:52.270Z,86.60
2017-08-03T10:45:19.928Z,86.00
2017-08-03T10:47:47.618Z,85.40
2017-08-03T10:50:15.272Z,84.70
2017-08-03T10:52:42.963Z,83.90
2017-08-03T10:55:10.611Z,82.40
2017-08-03T10:57:38.298Z,81.90
2017-08-03T11:00:05.958Z,80.70
2017-08-03T11:02:33.672Z,80.90
2017-08-03T11:05:01.328Z,81.00
2017-08-03T11:07:28.980Z,80.20
2017-08-03T11:09:56.672Z,80.60
2017-08-03T11:12:24.314Z,81.00
2017-08-03T11:14:52.027Z,80.30
2017-08-03T11:17:20.448Z,79.80
2017-08-03T11:19:48.145Z,79.80
2017-08-03T11:22:15.799Z,78.10
2017-08-03T11:24:43.483Z,78.80
2017-08-03T11:27:11.164Z,78.60
2017-08-03T11:29:38.850Z,77.40
2017-08-03T11:32:06.515Z,76.90
2017-08-03T11:34:34.206Z,77.50
2017-08-03T11:37:01.859Z,77.60
2017-08-03T11:39:29.543Z,76.70
2017-08-03T11:41:57.967Z,76.60
2017-08-03T11:44:25.673Z,75.80
2017-08-03T11:46:53.318Z,75.30
2017-08-03T11:49:21.015Z,74.20
2017-08-03T11:51:48.663Z,74.20
2017-08-03T11:54:17.125Z,74.50
2017-08-03T11:56:44.775Z,74.40
2017-08-03T11:59:12.476Z,73.90
2017-08-03T12:01:40.127Z,72.20
2017-08-03T12:04:07.823Z,73.30
2017-08-03T12:06:35.471Z,72.00
2017-08-03T12:09:03.187Z,70.00
2017-08-03T12:11:30.964Z,70.40
2017-08-03T12:13:58.619Z,70.50
2017-08-03T12:16:27.078Z,69.30
2017-08-03T12:18:54.732Z,69.30
2017-08-03T12:21:22.490Z,68.40
2017-08-03T12:23:50.140Z,68.20
2017-08-03T12:26:17.831Z,68.20
2017-08-03T12:28:46.247Z,69.60
2017-08-03T12:31:13.940Z,69.60
2017-08-03T12:33:41.595Z,69.90
2017-08-03T12:36:09.292Z,69.70
2017-08-03T12:38:37.719Z,67.50
2017-08-03T12:41:05.413Z,67.50
2017-08-03T12:43:33.066Z,68.60
2017-08-03T12:46:00.747Z,67.20
2017-08-03T12:48:29.163Z,64.70
2017-08-03T12:50:56.916Z,64.70
2017-08-03T12:53:24.563Z,63.60
2017-08-03T12:55:52.271Z,63.00
2017-08-03T12:58:19.925Z,63.50
2017-08-03T13:00:47.624Z,62.80
2017-08-03T13:03:16.039Z,64.60
2017-08-03T13:05:43.735Z,64.50
2017-08-03T13:08:11.388Z,62.90
2017-08-03T13:10:39.080Z,62.90
2017-08-03T13:13:07.495Z,64.80
2017-08-03T13:15:35.275Z,64.10
2017-08-03T13:18:02.926Z,64.40
2017-08-03T13:20:30.579Z,65.10
2017-08-03T13:22:58.270Z,64.70
2017-08-03T13:25:25.910Z,64.90
2017-08-03T13:27:53.599Z,66.30
2017-08-03T13:30:21.252Z,63.40
2017-08-03T13:32:48.935Z,61.80
2017-08-03T13:35:17.354Z,61.50
2017-08-03T13:37:45.039Z,61.40
2017-08-03T13:40:12.686Z,61.70
2017-08-03T13:42:40.375Z,59.20
2017-08-03T13:45:08.028Z,59.00
2017-08-03T13:47:35.714Z,59.70
2017-08-03T13:50:04.123Z,59.40
2017-08-03T13:52:31.814Z,59.30
2017-08-03T13:54:59.469Z,59.90
2017-08-03T13:57:27.155Z,60.80
2017-08-03T13:59:54.799Z,54.80
2017-08-03T14:02:22.524Z,56.80
2017-08-03T14:04:50.168Z,58.20
2017-08-03T14:07:17.854Z,53.50
2017-08-03T14:09:45.509Z,56.60
2017-08-03T14:12:13.200Z,47.30
2017-08-03T14:14:40.854Z,46.80
2017-08-03T14:17:08.562Z,45.60
2017-08-03T14:19:36.202Z,46.00
2017-08-03T14:22:04.619Z,47.40
2017-08-03T14:24:32.309Z,47.20
2017-08-03T14:26:59.950Z,48.60
2017-08-03T14:29:27.638Z,47.50
2017-08-03T14:31:55.292Z,48.70
2017-08-03T14:34:22.986Z,46.60
2017-08-03T14:36:51.407Z,46.20
2017-08-03T14:39:19.095Z,46.20
2017-08-03T14:41:46.752Z,45.30
2017-08-03T14:44:14.443Z,46.90
2017-08-03T14:46:42.859Z,46.90
2017-08-03T14:49:10.556Z,46.90
2017-08-03T14:51:38.211Z,47.80
2017-08-03T14:54:05.898Z,47.40
2017-08-03T14:56:34.306Z,48.90
2017-08-03T14:59:02.004Z,48.80
2017-08-03T15:01:29.689Z,49.20
2017-08-03T15:03:58.152Z,49.50
2017-08-03T15:06:25.798Z,49.50
2017-08-03T15:08:53.487Z,49.00
2017-08-03T15:11:21.899Z,49.10
2017-08-03T15:13:49.594Z,49.10
2017-08-03T15:16:17.250Z,49.50
2017-08-03T15:18:44.954Z,49.80
2017-08-03T15:21:13.367Z,48.60
2017-08-03T15:23:41.010Z,48.70
2017-08-03T15:26:08.704Z,48.20
2017-08-03T15:28:36.355Z,49.10
2017-08-03T15:31:04.047Z,49.70
2017-08-03T15:33:31.702Z,49.90
2017-08-03T15:35:59.398Z,50.20
2017-08-03T15:38:27.047Z,50.00
2017-08-03T15:40:55.499Z,50.00
2017-08-03T15:43:23.151Z,50.00
2017-08-03T15:45:50.887Z,49.90
2017-08-03T15:48:18.539Z,49.60
2017-08-03T15:50:46.227Z,49.90
2017-08-03T15:53:13.877Z,49.00
2017-08-03T15:55:41.567Z,46.60
2017-08-03T15:58:09.220Z,46.10
2017-08-03T16:00:36.915Z,48.40
2017-08-03T16:03:04.852Z,48.60
2017-08-03T16:05:32.572Z,49.20
2017-08-03T16:08:00.238Z,47.80
2017-08-03T16:10:27.923Z,49.30
2017-08-03T16:12:55.575Z,49.90
2017-08-03T16:15:23.259Z,51.00
2017-08-03T16:17:51.679Z,53.00
2017-08-03T16:20:19.377Z,53.00
2017-08-03T16:22:47.025Z,53.00
2017-08-03T16:25:14.671Z,53.40
2017-08-03T16:27:42.357Z,53.80
2017-08-03T16:30:10.052Z,54.00
2017-08-03T16:32:37.743Z,54.00
2017-08-03T16:35:05.392Z,53.70
2017-08-03T16:37:33.081Z,53.70
2017-08-03T16:40:00.727Z,53.40
2017-08-03T16:42:28.427Z,53.70
2017-08-03T16:44:56.083Z,53.00
2017-08-03T16:47:23.767Z,53.60
2017-08-03T16:49:51.419Z,53.10
2017-08-03T16:52:19.875Z,53.70
2017-08-03T16:54:47.532Z,53.70
2017-08-03T16:57:15.222Z,54.40
2017-08-03T16:59:43.638Z,54.70
2017-08-03T17:02:11.327Z,54.70
2017-08-03T17:04:38.973Z,54.70
2017-08-03T17:07:06.668Z,54.90
2017-08-03T17:09:35.096Z,56.50
2017-08-03T17:12:02.779Z,55.90
2017-08-03T17:14:30.430Z,55.10
2017-08-03T17:16:58.114Z,55.20
2017-08-03T17:19:25.771Z,55.30
2017-08-03T17:21:53.484Z,55.60
2017-08-03T17:24:21.147Z,55.30
2017-08-03T17:26:48.802Z,55.20
2017-08-03T17:29:16.495Z,55.00
2017-08-03T17:31:44.141Z,55.70
2017-08-03T17:34:11.835Z,56.00
2017-08-03T17:36:39.482Z,56.40
2017-08-03T17:39:07.171Z,56.30
2017-08-03T17:41:35.583Z,57.10
2017-08-03T17:44:03.279Z,57.10
2017-08-03T17:46:30.954Z,57.60
2017-08-03T17:48:59.419Z,58.70
2017-08-03T17:51:27.067Z,58.70
2017-08-03T17:53:54.761Z,58.40
2017-08-03T17:56:22.412Z,58.30
2017-08-03T17:58:50.902Z,57.50
2017-08-03T18:01:18.576Z,57.50
2017-08-03T18:03:46.314Z,57.70
2017-08-03T18:06:14.732Z,56.00
2017-08-03T18:08:42.439Z,56.00
2017-08-03T18:11:10.095Z,56.80
2017-08-03T18:13:37.793Z,55.80
2017-08-03T18:16:05.442Z,56.10
2017-08-03T18:18:33.135Z,56.60
2017-08-03T18:21:00.790Z,56.70
2017-08-03T18:23:28.484Z,57.30
2017-08-03T18:25:56.131Z,57.10
2017-08-03T18:28:23.884Z,58.00
2017-08-03T18:30:51.550Z,57.30
2017-08-03T18:33:19.244Z,57.70
2017-08-03T18:35:47.711Z,58.20
2017-08-03T18:38:15.363Z,58.10
2017-08-03T18:40:43.046Z,58.70
2017-08-03T18:43:10.700Z,57.40
2017-08-03T18:45:38.404Z,57.60
2017-08-03T18:48:06.058Z,58.30
2017-08-03T18:50:33.752Z,58.30
2017-08-03T18:53:01.406Z,58.50
2017-08-03T18:55:29.099Z,58.70
2017-08-03T18:57:56.760Z,58.80
2017-08-03T19:00:24.452Z,59.40
2017-08-03T19:02:52.122Z,59.10
2017-08-03T19:05:19.815Z,60.40
2017-08-03T19:07:47.572Z,60.40
2017-08-03T19:10:15.273Z,61.10
2017-08-03T19:12:43.699Z,61.50
2017-08-03T19:15:11.401Z,61.40
2017-08-03T19:17:39.815Z,60.80
2017-08-03T19:20:07.512Z,60.70
2017-08-03T19:22:35.166Z,60.70
2017-08-03T19:25:02.868Z,61.20
2017-08-03T19:27:31.279Z,62.10
2017-08-03T19:29:58.927Z,62.00
2017-08-03T19:32:26.618Z,62.00
2017-08-03T19:34:54.264Z,61.60
2017-08-03T19:37:21.983Z,62.20
2017-08-03T19:39:50.406Z,62.40
2017-08-03T19:42:18.095Z,62.40
2017-08-03T19:44:45.749Z,63.50
2017-08-03T19:47:13.480Z,62.90
2017-08-03T19:49:41.210Z,62.30
2017-08-03T19:52:08.920Z,62.20
2017-08-03T19:54:36.567Z,62.80
2017-08-03T19:57:04.269Z,63.10
2017-08-03T19:59:31.947Z,64.00
2017-08-03T20:01:59.639Z,64.30
2017-08-03T20:04:27.292Z,64.70
2017-08-03T20:07:06.931Z,65.20
2017-08-03T20:09:37.663Z,65.00
2017-08-03T20:12:08.303Z,65.10
2017-08-03T20:14:35.947Z,65.40
2017-08-03T20:17:03.681Z,65.80
2017-08-03T20:19:32.139Z,64.70
2017-08-03T20:21:59.832Z,64.60
2017-08-03T20:24:27.484Z,64.60
2017-08-03T20:26:55.178Z,64.80
2017-08-03T20:29:22.832Z,64.70
2017-08-03T20:31:50.639Z,64.50
2017-08-03T20:34:18.295Z,64.70
2017-08-03T20:36:45.991Z,65.80
2017-08-03T20:39:13.651Z,66.30
2017-08-03T20:41:41.348Z,66.00
2017-08-03T20:44:09.013Z,66.60
2017-08-03T20:46:36.668Z,66.40
2017-08-03T20:49:04.359Z,67.30
2017-08-03T20:51:32.015Z,66.70
2017-08-03T20:53:59.711Z,67.40
2017-08-03T20:56:27.380Z,68.40
2017-08-03T20:58:55.071Z,67.80
2017-08-03T21:01:22.719Z,67.80
2017-08-03T21:03:50.418Z,67.50
2017-08-03T21:06:18.071Z,67.60
2017-08-03T21:08:45.754Z,67.60
2017-08-03T21:11:13.399Z,67.10
2017-08-03T21:13:41.082Z,67.10
2017-08-03T21:16:08.739Z,68.30
2017-08-03T21:18:37.201Z,69.00
2017-08-03T21:21:05.623Z,69.40
2017-08-03T21:23:33.322Z,69.40
2017-08-03T21:26:00.967Z,69.50
2017-08-03T21:28:28.657Z,70.00
2017-08-03T21:30:57.066Z,71.80
2017-08-03T21:33:24.771Z,71.10
2017-08-03T21:35:52.410Z,71.30
2017-08-03T21:38:20.115Z,71.40
2017-08-03T21:40:47.761Z,71.30
2017-08-03T21:43:15.407Z,71.00
2017-08-03T21:45:43.098Z,70.10
2017-08-03T21:48:10.751Z,70.20
2017-08-03T21:50:39.208Z,69.50
2017-08-03T21:53:06.866Z,69.20
2017-08-03T21:55:34.562Z,69.30
2017-08-03T21:58:02.999Z,69.20
2017-08-03T22:00:42.687Z,69.20
2017-08-03T22:03:10.340Z,69.20
2017-08-03T22:05:38.799Z,70.60
2017-08-03T22:08:06.507Z,70.50
2017-08-03T22:10:34.204Z,71.40
2017-08-03T22:13:01.854Z,71.60
2017-08-03T22:15:29.574Z,71.90
2017-08-03T22:17:57.224Z,71.90
2017-08-03T22:20:24.920Z,71.40
2017-08-03T22:22:52.567Z,71.70
2017-08-03T22:25:20.253Z,71.90
2017-08-03T22:27:47.895Z,72.30
2017-08-03T22:30:15.597Z,72.40
2017-08-03T22:32:43.243Z,72.30
2017-08-03T22:35:10.935Z,72.80
2017-08-03T22:37:38.583Z,72.30
2017-08-03T22:40:07.043Z,71.80
2017-08-03T22:42:34.688Z,71.80
2017-08-03T22:45:02.382Z,72.40
2017-08-03T22:47:30.036Z,72.90
2017-08-03T22:49:57.690Z,73.20
2017-08-03T22:52:25.384Z,73.60
2017-08-03T22:54:53.035Z,73.70
2017-08-03T22:57:20.718Z,73.60
2017-08-03T22:59:48.362Z,74.00
2017-08-03T23:02:16.047Z,74.70
2017-08-03T23:04:43.691Z,75.10
2017-08-03T23:07:11.374Z,75.60
2017-08-03T23:09:39.019Z,74.80
2017-08-03T23:12:06.708Z,75.70
2017-08-03T23:14:34.351Z,76.00
2017-08-03T23:17:02.044Z,75.70
2017-08-03T23:19:29.700Z,75.80
2017-08-03T23:21:57.422Z,75.70
2017-08-03T23:24:25.071Z,75.80
2017-08-03T23:26:52.760Z,75.30
2017-08-03T23:29:20.411Z,74.80
2017-08-03T23:31:48.108Z,75.40
2017-08-03T23:34:15.755Z,76.20
2017-08-03T23:36:43.443Z,76.70
2017-08-03T23:39:11.086Z,76.00
2017-08-03T23:41:39.547Z,76.40
2017-08-03T23:44:07.203Z,75.80
2017-08-03T23:46:34.911Z,75.60
2017-08-03T23:49:02.562Z,76.10
2017-08-03T23:51:30.213Z,77.10
2017-08-03T23:53:57.899Z,77.60
2017-08-03T23:56:25.542Z,78.50
2017-08-03T23:58:53.226Z,78.60
